Time;durP1;ratioP1;P1;durP2;ratioP2;P2;SDS_P1;SDS_P2;PMS_P1;PMS_P2;Temp;Humidity;BMP_temperature;BMP_pressure;BME280_temperature;BME280_humidity;BME280_pressure;Samples;Min_cycle;Max_cycle;Signal;HPM_P1;HPM_P2
2022/10/11 00:01:56;;;;;;;17.47;11.30;;;;;;;7.48;85.65;99216.17;2173000;82;21344;-83
2022/10/11 00:04:57;;;;;;;19.67;11.47;;;;;;;7.52;85.67;99215.43;2172868;82;20961;-83
2022/10/11 00:07:57;;;;;;;17.20;10.60;;;;;;;7.54;85.77;99218.08;2172851;82;20909;-83
2022/10/11 00:10:58;;;;;;;16.43;10.50;;;;;;;7.54;85.80;99212.88;2173181;82;20995;-82
2022/10/11 00:13:58;;;;;;;24.40;11.20;;;;;;;7.53;86.04;99217.19;2173108;82;20961;-82
2022/10/11 00:16:58;;;;;;;27.73;12.03;;;;;;;7.57;86.23;99216.45;2172881;82;21355;-82
2022/10/11 00:19:59;;;;;;;104.70;15.50;;;;;;;7.61;86.34;99223.49;2172993;82;20976;-84
2022/10/11 00:22:59;;;;;;;59.13;14.83;;;;;;;7.61;86.45;99215.70;2172871;81;21031;-83
2022/10/11 00:26:00;;;;;;;20.10;11.47;;;;;;;7.60;86.47;99224.33;2173466;82;20969;-83
2022/10/11 00:29:00;;;;;;;28.73;12.93;;;;;;;7.60;86.45;99223.03;2173360;82;20979;-84
2022/10/11 00:32:01;;;;;;;31.60;18.13;;;;;;;7.58;86.63;99226.00;2173524;82;20956;-82
2022/10/11 00:35:05;;;;;;;29.03;12.80;;;;;;;7.56;86.73;99219.88;2173234;82;20968;-85
2022/10/11 00:38:01;;;;;;;29.07;12.13;;;;;;;7.56;86.75;99226.38;2173203;82;21005;-83
2022/10/11 00:41:02;;;;;;;23.90;11.47;;;;;;;7.56;86.91;99223.78;2172829;82;21004;-83
2022/10/11 00:44:02;;;;;;;18.90;10.77;;;;;;;7.55;86.92;99218.53;2173148;82;20949;-84
2022/10/11 00:47:02;;;;;;;20.53;11.27;;;;;;;7.55;87.06;99215.52;2173083;82;21241;-83
2022/10/11 00:50:03;;;;;;;20.17;11.23;;;;;;;7.59;87.20;99214.77;2173268;82;20968;-83
2022/10/11 00:53:03;;;;;;;21.10;12.43;;;;;;;7.60;87.09;99215.66;2172988;82;21399;-82
2022/10/11 00:56:04;;;;;;;22.17;12.30;;;;;;;7.62;87.20;99213.56;2172661;82;20969;-83
2022/10/11 00:59:04;;;;;;;20.67;11.83;;;;;;;7.63;87.34;99208.83;2172791;82;20992;-82
2022/10/11 01:02:04;;;;;;;16.60;11.17;;;;;;;7.70;87.24;99215.50;2173138;82;20984;-83
2022/10/11 01:05:05;;;;;;;18.10;11.07;;;;;;;7.68;87.23;99208.97;2172859;82;21004;-83
2022/10/11 01:08:05;;;;;;;23.73;11.83;;;;;;;7.64;87.22;99203.22;2172991;82;20952;-83
2022/10/11 01:11:06;;;;;;;22.97;12.00;;;;;;;7.62;87.21;99208.37;2173084;82;20952;-83
2022/10/11 01:14:06;;;;;;;24.00;12.03;;;;;;;7.60;87.37;99207.44;2173463;82;20985;-83
2022/10/11 01:17:06;;;;;;;31.70;12.17;;;;;;;7.58;87.51;99205.22;2173126;82;20999;-83
2022/10/11 01:20:07;;;;;;;36.17;12.77;;;;;;;7.60;87.75;99211.34;2173047;82;21008;-84
2022/10/11 01:23:07;;;;;;;37.00;19.17;;;;;;;7.59;87.80;99212.17;2182836;81;20988;-82
2022/10/11 01:26:08;;;;;;;55.00;14.47;;;;;;;7.62;87.94;99211.38;2189395;81;21003;-82
2022/10/11 01:29:08;;;;;;;30.87;12.33;;;;;;;7.63;88.14;99206.66;2189671;81;20945;-83
2022/10/11 01:32:08;;;;;;;25.23;12.13;;;;;;;7.81;89.12;99202.44;2189931;81;20925;-83
2022/10/11 01:35:09;;;;;;;17.53;10.97;;;;;;;7.86;88.20;99201.73;2189654;81;21007;-82
2022/10/11 01:38:10;;;;;;;23.53;11.47;;;;;;;7.85;87.90;99201.68;2189693;81;21368;-83
2022/10/11 01:41:10;;;;;;;20.77;10.90;;;;;;;7.80;87.77;99208.44;2189495;81;20988;-83
2022/10/11 01:44:10;;;;;;;27.73;11.30;;;;;;;7.76;87.79;99203.98;2189528;81;20920;-83
2022/10/11 01:47:10;;;;;;;21.43;10.83;;;;;;;7.72;87.98;99205.62;2189480;81;20999;-83
2022/10/11 01:50:11;;;;;;;20.90;11.13;;;;;;;7.71;88.04;99206.88;2189934;81;20952;-83
2022/10/11 01:53:11;;;;;;;25.87;15.90;;;;;;;7.70;88.08;99207.70;2189673;81;21068;-84
2022/10/11 01:56:12;;;;;;;123.43;18.10;;;;;;;7.71;88.22;99202.98;2189907;81;20955;-83
2022/10/11 01:59:12;;;;;;;29.93;11.13;;;;;;;7.71;88.17;99199.08;2189777;81;21031;-83
2022/10/11 02:02:12;;;;;;;27.23;12.00;;;;;;;7.70;88.15;99202.52;2189878;81;20952;-83
2022/10/11 02:05:13;;;;;;;50.60;13.70;;;;;;;7.68;88.31;99202.47;2189826;81;20921;-83
2022/10/11 02:08:13;;;;;;;82.93;15.90;;;;;;;7.69;88.44;99204.23;2189933;81;20920;-83
2022/10/11 02:11:14;;;;;;;18.70;11.20;;;;;;;7.71;88.65;99211.66;2189989;81;21316;-84
2022/10/11 02:14:14;;;;;;;21.03;11.50;;;;;;;7.75;88.62;99208.30;2189831;81;20964;-84
2022/10/11 02:17:14;;;;;;;20.70;11.67;;;;;;;7.78;88.62;99210.11;2189969;81;20932;-83
2022/10/11 02:20:15;;;;;;;30.67;12.53;;;;;;;7.81;88.43;99206.33;2189965;81;20984;-83
2022/10/11 02:23:15;;;;;;;35.63;15.87;;;;;;;7.79;88.35;99197.16;2179876;81;21031;-83
2022/10/11 02:26:16;;;;;;;18.50;11.33;;;;;;;7.79;88.51;99201.05;2173218;82;20933;-84
2022/10/11 02:29:16;;;;;;;22.93;11.47;;;;;;;7.79;88.38;99196.28;2173107;82;21423;-83
2022/10/11 02:32:16;;;;;;;38.97;13.20;;;;;;;7.80;88.42;99195.44;2173304;82;21039;-83
2022/10/11 02:35:17;;;;;;;45.83;13.13;;;;;;;7.80;88.39;99196.73;2172773;82;20996;-84
2022/10/11 02:38:17;;;;;;;26.23;12.70;;;;;;;7.81;88.59;99198.12;2173270;82;20969;-84
2022/10/11 02:41:18;;;;;;;23.50;10.73;;;;;;;7.83;88.51;99198.16;2173178;82;20981;-83
2022/10/11 02:44:18;;;;;;;21.57;10.80;;;;;;;7.84;88.46;99193.42;2172935;82;20932;-81
2022/10/11 02:47:19;;;;;;;21.50;10.43;;;;;;;7.83;88.50;99195.56;2173143;82;20933;-83
2022/10/11 02:50:19;;;;;;;25.07;10.73;;;;;;;7.85;88.49;99197.78;2173329;82;21345;-82
2022/10/11 02:53:19;;;;;;;17.77;10.50;;;;;;;7.85;88.45;99197.78;2172965;82;20952;-84
2022/10/11 02:56:20;;;;;;;84.60;45.77;;;;;;;7.85;88.47;99196.06;2173283;82;20953;-81
2022/10/11 02:59:20;;;;;;;39.37;17.90;;;;;;;7.87;88.55;99199.59;2173070;82;21400;-83
2022/10/11 03:02:21;;;;;;;33.23;13.03;;;;;;;7.85;88.61;99199.97;2173075;82;21008;-83
2022/10/11 03:05:21;;;;;;;16.27;10.73;;;;;;;7.87;88.55;99209.10;2172860;82;20991;-83
2022/10/11 03:08:21;;;;;;;63.47;12.53;;;;;;;7.85;88.56;99199.09;2173178;82;21337;-82
2022/10/11 03:11:22;;;;;;;24.03;10.80;;;;;;;7.86;88.66;99209.52;2172858;82;20929;-83
2022/10/11 03:14:22;;;;;;;45.67;12.10;;;;;;;7.86;88.67;99203.44;2173130;82;20917;-81
2022/10/11 03:17:23;;;;;;;21.10;10.70;;;;;;;7.85;88.55;99209.48;2173475;82;20992;-83
2022/10/11 03:20:23;;;;;;;20.73;9.87;;;;;;;7.83;88.53;99206.84;2172754;82;20996;-84
2022/10/11 03:23:23;;;;;;;20.10;11.20;;;;;;;7.83;88.58;99206.84;2172500;80;21043;-82
2022/10/11 03:26:24;;;;;;;20.67;11.10;;;;;;;7.83;88.54;99217.65;2172767;82;20936;-82
2022/10/11 03:29:24;;;;;;;17.67;10.47;;;;;;;7.84;88.55;99218.11;2172629;82;20936;-84
2022/10/11 03:32:25;;;;;;;42.87;12.80;;;;;;;7.80;88.36;99215.84;2172627;82;20952;-83
2022/10/11 03:35:25;;;;;;;20.63;10.00;;;;;;;7.77;88.55;99216.14;2173025;82;21024;-85
2022/10/11 03:38:25;;;;;;;26.90;16.93;;;;;;;7.76;88.61;99220.88;2172291;82;20999;-81
2022/10/11 03:41:26;;;;;;;18.40;11.73;;;;;;;7.73;88.64;99229.89;2171743;82;20965;-82
2022/10/11 03:44:26;;;;;;;23.10;10.00;;;;;;;7.70;88.96;99222.88;2171791;82;21007;-81
2022/10/11 03:47:27;;;;;;;145.43;21.60;;;;;;;7.68;89.02;99229.33;2172117;82;21082;-80
2022/10/11 03:50:27;;;;;;;23.47;10.43;;;;;;;7.72;89.31;99230.72;2171774;82;20933;-78
2022/10/11 03:53:27;;;;;;;43.10;12.80;;;;;;;7.75;89.35;99230.81;2171075;82;21020;-81
2022/10/11 03:56:28;;;;;;;20.77;10.60;;;;;;;7.77;89.40;99231.73;2171387;82;21360;-81
2022/10/11 03:59:28;;;;;;;287.10;26.63;;;;;;;7.77;89.48;99232.61;2171632;82;20988;-80
2022/10/11 04:02:29;;;;;;;63.27;14.23;;;;;;;7.77;89.76;99233.92;2171805;82;20968;-82
2022/10/11 04:05:29;;;;;;;41.83;12.50;;;;;;;7.82;89.90;99234.96;2170925;82;20953;-83
2022/10/11 04:08:30;;;;;;;27.13;11.27;;;;;;;7.86;90.25;99236.81;2171595;82;20890;-82
2022/10/11 04:11:30;;;;;;;23.67;10.73;;;;;;;7.93;90.47;99240.05;2172675;82;21384;-82
2022/10/11 04:14:30;;;;;;;21.53;10.47;;;;;;;8.02;90.64;99244.63;2171926;82;20987;-83
2022/10/11 04:17:31;;;;;;;51.80;22.80;;;;;;;8.07;90.69;99240.44;2171762;82;20980;-81
2022/10/11 04:20:31;;;;;;;26.17;15.37;;;;;;;8.18;91.18;99239.44;2170655;82;21020;-82
2022/10/11 04:23:32;;;;;;;20.73;12.60;;;;;;;8.27;91.09;99239.69;2178617;81;21019;-82
2022/10/11 04:26:32;;;;;;;16.93;10.73;;;;;;;8.34;91.13;99244.25;2187132;81;20937;-81
2022/10/11 04:29:32;;;;;;;20.33;11.43;;;;;;;8.47;91.59;99246.75;2187266;81;21350;-82
2022/10/11 04:32:33;;;;;;;16.63;10.87;;;;;;;8.65;91.82;99243.75;2187663;81;20908;-82
2022/10/11 04:35:33;;;;;;;29.50;11.00;;;;;;;8.81;91.66;99253.32;2187062;81;21100;-81
2022/10/11 04:38:34;;;;;;;21.83;11.23;;;;;;;8.92;91.66;99254.47;2187897;81;21035;-80
2022/10/11 04:41:34;;;;;;;83.93;13.83;;;;;;;9.02;91.47;99254.70;2187895;81;21335;-82
2022/10/11 04:44:34;;;;;;;25.17;10.80;;;;;;;9.15;91.43;99256.75;2187949;81;20952;-80
2022/10/11 04:47:35;;;;;;;20.10;11.27;;;;;;;9.29;91.37;99261.86;2187613;81;20932;-86
2022/10/11 04:50:35;;;;;;;20.60;9.97;;;;;;;9.45;91.29;99269.19;2187556;81;20972;-81
2022/10/11 04:53:36;;;;;;;18.03;10.60;;;;;;;9.57;91.08;99264.28;2187419;81;20996;-83
2022/10/11 04:56:36;;;;;;;18.87;10.97;;;;;;;9.72;90.94;99268.08;2187651;81;20921;-83
2022/10/11 04:59:36;;;;;;;22.23;12.17;;;;;;;9.85;91.02;99269.68;2187493;81;21396;-82
2022/10/11 05:02:37;;;;;;;18.80;12.13;;;;;;;9.95;90.97;99269.87;2187571;81;20952;-80
2022/10/11 05:05:37;;;;;;;18.23;11.50;;;;;;;10.04;90.87;99282.69;2187738;81;20893;-81
2022/10/11 05:08:38;;;;;;;17.50;11.30;;;;;;;10.13;91.12;99280.69;2188167;81;21012;-80
2022/10/11 05:11:38;;;;;;;14.07;9.77;;;;;;;10.19;91.41;99276.47;2187151;81;20901;-82
2022/10/11 05:14:38;;;;;;;16.73;11.27;;;;;;;10.24;91.23;99288.34;2186738;81;20928;-80
2022/10/11 05:17:39;;;;;;;15.63;10.53;;;;;;;10.29;91.30;99289.73;2186641;81;20928;-83
2022/10/11 05:20:39;;;;;;;16.73;11.07;;;;;;;10.33;91.22;99292.86;2186739;81;20963;-83
2022/10/11 05:23:40;;;;;;;14.10;12.07;;;;;;;10.37;91.05;99303.81;2186726;81;21007;-83
2022/10/11 05:26:43;;;;;;;15.67;11.67;;;;;;;10.40;90.87;99304.79;2186790;81;20988;-83
2022/10/11 05:29:43;;;;;;;15.30;10.93;;;;;;;10.41;90.85;99313.08;2187023;81;20971;-82
2022/10/11 05:32:44;;;;;;;18.57;12.30;;;;;;;10.45;90.89;99313.59;2187393;81;20901;-82
2022/10/11 05:35:44;;;;;;;20.63;13.50;;;;;;;10.51;90.99;99316.74;2187799;81;21390;-84
2022/10/11 05:38:45;;;;;;;19.03;13.20;;;;;;;10.59;90.96;99317.77;2187999;81;21297;-83
2022/10/11 05:41:45;;;;;;;19.43;12.40;;;;;;;10.67;90.86;99317.91;2188461;81;20929;-79
2022/10/11 05:44:45;;;;;;;16.90;12.03;;;;;;;10.74;90.65;99321.09;2188639;81;20940;-83
2022/10/11 05:47:46;;;;;;;16.63;11.43;;;;;;;10.78;90.43;99330.32;2187967;81;21319;-84
2022/10/11 05:50:46;;;;;;;20.87;13.50;;;;;;;10.82;90.36;99331.26;2188097;81;20990;-83
2022/10/11 05:53:47;;;;;;;17.27;12.97;;;;;;;10.89;90.51;99324.41;2187574;81;20984;-86
2022/10/11 05:56:47;;;;;;;18.27;12.07;;;;;;;10.95;90.34;99329.75;2188156;81;20959;-83
2022/10/11 05:59:47;;;;;;;19.77;12.57;;;;;;;10.97;90.05;99338.49;2188578;81;20976;-84
2022/10/11 06:02:48;;;;;;;18.70;14.30;;;;;;;10.99;90.12;99339.40;2188142;81;20960;-84
2022/10/11 06:05:48;;;;;;;20.70;15.37;;;;;;;11.03;89.92;99343.83;2187568;81;20928;-82
2022/10/11 06:08:49;;;;;;;22.60;15.43;;;;;;;11.05;90.05;99348.22;2188028;81;21321;-85
2022/10/11 06:11:49;;;;;;;19.67;17.57;;;;;;;11.09;90.02;99357.00;2187270;81;20963;-83
2022/10/11 06:14:49;;;;;;;20.15;15.20;;;;;;;12.72;100.00;99359.05;2187083;81;20992;-83
2022/10/11 06:17:51;;;;;;;25.90;13.58;;;;;;;14.52;100.00;99351.39;2187258;81;21361;-84
2022/10/11 06:20:51;;;;;;;18.37;13.62;;;;;;;15.88;94.92;99346.40;2187139;81;20952;-83
2022/10/11 06:23:52;;;;;;;15.65;11.83;;;;;;;16.74;88.59;99359.80;2188098;81;20992;-85
2022/10/11 06:26:54;;;;;;;22.13;11.25;;;;;;;17.13;84.43;99362.66;2171502;81;21020;-85
2022/10/11 06:29:55;;;;;;;20.72;12.10;;;;;;;17.56;81.35;99358.42;2187972;81;20932;-82
2022/10/11 06:32:55;;;;;;;17.32;11.90;;;;;;;17.79;78.76;99360.45;2188168;81;21359;-80
2022/10/11 06:35:55;;;;;;;22.30;11.95;;;;;;;17.82;77.46;99363.06;2188814;81;20983;-82
2022/10/11 06:42:04;;;;;;;13.28;11.15;;;;;;;18.00;75.64;99371.25;2294787;77;22191;-83
2022/10/11 06:45:04;;;;;;;15.32;11.48;;;;;;;18.25;75.51;99382.48;2237280;78;21017;-84
2022/10/11 06:48:09;;;;;;;16.95;11.95;;;;;;;18.38;73.54;99384.09;2186872;81;21014;-83
2022/10/11 06:51:09;;;;;;;15.48;11.08;;;;;;;18.49;73.13;99391.91;2204106;80;21009;-82
2022/10/11 06:54:09;;;;;;;13.25;10.23;;;;;;;18.46;69.75;99398.55;2237350;80;21338;-83
2022/10/11 06:57:10;;;;;;;12.10;10.18;;;;;;;18.48;71.26;99399.86;2236558;79;20943;-83
2022/10/11 07:00:13;;;;;;;12.75;10.00;;;;;;;18.50;69.87;99406.00;2236649;80;21005;-84
2022/10/11 07:03:12;;;;;;;17.20;12.30;;;;;;;18.62;70.15;99394.88;2232402;80;21438;-83
2022/10/11 07:06:13;;;;;;;16.17;11.50;;;;;;;18.78;69.40;99398.20;2236674;79;20994;-83
2022/10/11 07:09:13;;;;;;;23.38;11.95;;;;;;;18.91;68.82;99400.24;2236903;80;20950;-84
2022/10/11 07:12:15;;;;;;;16.65;12.03;;;;;;;19.16;68.88;99398.17;2236667;79;20982;-83
2022/10/11 07:15:17;;;;;;;18.75;11.65;;;;;;;19.38;67.18;99399.61;2235358;79;21386;-84
2022/10/11 07:18:18;;;;;;;13.30;10.45;;;;;;;19.50;65.67;99411.34;2236075;79;21302;-81
2022/10/11 07:21:18;;;;;;;15.20;10.00;;;;;;;19.40;64.40;99413.70;2235953;79;20990;-82
2022/10/11 07:24:19;;;;;;;16.52;10.88;;;;;;;19.27;63.59;99419.63;2237043;79;20926;-84
2022/10/11 07:27:19;;;;;;;23.55;10.82;;;;;;;19.21;64.91;99422.36;2237067;80;20925;-84
2022/10/11 07:30:21;;;;;;;14.85;10.13;;;;;;;19.15;63.96;99417.15;2201604;80;21026;-84
2022/10/11 07:33:22;;;;;;;14.43;9.65;;;;;;;19.34;63.18;99427.03;2235164;79;20981;-79
2022/10/11 07:36:22;;;;;;;19.48;10.20;;;;;;;19.47;64.08;99424.63;2235364;79;20942;-77
2022/10/11 07:39:22;;;;;;;18.42;10.82;;;;;;;19.23;62.00;99431.59;2234157;78;20911;-78
2022/10/11 07:42:23;;;;;;;12.70;9.88;;;;;;;17.51;61.02;99438.95;2222797;80;21038;-80
2022/10/11 07:45:24;;;;;;;14.23;10.63;;;;;;;17.06;65.31;99447.10;2222836;80;20967;-81
2022/10/11 07:48:24;;;;;;;13.60;10.78;;;;;;;16.88;65.71;99446.73;2223267;80;20947;-81
2022/10/11 07:51:24;;;;;;;16.37;10.80;;;;;;;16.70;67.16;99450.76;2221637;80;20939;-81
2022/10/11 07:54:25;;;;;;;16.02;10.38;;;;;;;16.68;67.74;99452.52;2221035;80;21002;-82
2022/10/11 07:57:25;;;;;;;14.40;10.23;;;;;;;16.99;68.35;99449.33;2221448;80;21021;-81
2022/10/11 08:00:25;;;;;;;13.10;10.25;;;;;;;17.49;68.12;99449.09;2220836;80;21033;-81
2022/10/11 08:03:29;;;;;;;17.80;10.37;;;;;;;17.73;67.96;99448.95;2221283;80;22082;-83
2022/10/11 08:06:31;;;;;;;15.48;9.58;;;;;;;17.80;66.75;99450.66;2221517;80;21331;-83
2022/10/11 08:09:29;;;;;;;12.82;9.85;;;;;;;17.38;63.75;99453.11;2221267;80;20924;-82
2022/10/11 08:12:30;;;;;;;14.33;10.00;;;;;;;16.91;66.56;99455.95;2221931;80;20946;-81
2022/10/11 08:15:35;;;;;;;15.63;9.80;;;;;;;17.28;65.80;99459.30;2222107;80;20951;-82
2022/10/11 08:18:33;;;;;;;19.07;10.45;;;;;;;17.46;64.17;99458.34;2225225;80;20959;-80
2022/10/11 08:21:34;;;;;;;81.00;14.58;;;;;;;17.23;65.56;99462.84;2220654;80;20975;-80
2022/10/11 08:24:34;;;;;;;51.28;12.65;;;;;;;17.25;65.60;99476.46;2221458;80;21267;-80
2022/10/11 08:27:35;;;;;;;35.78;11.20;;;;;;;17.10;66.28;99477.41;2221859;80;21403;-80
2022/10/11 08:30:35;;;;;;;13.88;10.20;;;;;;;17.35;66.33;99482.60;2220955;80;20974;-81
2022/10/11 08:33:35;;;;;;;31.17;10.58;;;;;;;17.12;64.56;99487.95;2220189;80;20987;-80
2022/10/11 08:36:36;;;;;;;18.50;9.73;;;;;;;16.74;66.91;99489.41;2220340;80;21218;-81
2022/10/11 08:39:36;;;;;;;29.30;9.98;;;;;;;17.04;67.90;99491.06;2220360;78;20947;-81
2022/10/11 08:42:36;;;;;;;16.97;11.20;;;;;;;17.13;67.34;99499.82;2220529;80;20971;-83
2022/10/11 08:45:37;;;;;;;24.98;11.70;;;;;;;16.75;66.59;99499.95;2220558;80;21041;-81
2022/10/11 08:48:37;;;;;;;25.48;13.43;;;;;;;16.39;67.94;99507.86;2220449;80;21403;-79
2022/10/11 08:51:38;;;;;;;21.50;13.58;;;;;;;15.86;69.07;99508.30;2217164;80;20934;-83
2022/10/11 08:54:38;;;;;;;18.67;12.75;;;;;;;15.60;71.59;99507.34;2220702;80;21005;-82
2022/10/11 08:57:38;;;;;;;23.22;14.20;;;;;;;15.80;71.45;99509.61;2221144;80;21647;-83
2022/10/11 09:00:39;;;;;;;23.98;14.45;;;;;;;16.08;71.09;99510.51;2220705;80;21410;-81
2022/10/11 09:03:39;;;;;;;30.02;14.60;;;;;;;16.06;70.04;99510.95;2221554;80;20986;-81
2022/10/11 09:06:40;;;;;;;23.73;15.32;;;;;;;15.84;70.91;99533.75;2221859;80;20947;-82
2022/10/11 09:09:41;;;;;;;21.42;14.80;;;;;;;15.73;70.48;99531.53;2220758;80;20923;-81
2022/10/11 09:12:42;;;;;;;19.75;15.00;;;;;;;15.52;71.39;99546.77;2220647;80;20943;-83
2022/10/11 09:15:42;;;;;;;22.93;15.48;;;;;;;15.54;72.36;99548.09;2221522;80;20950;-79
2022/10/11 09:18:42;;;;;;;24.30;15.83;;;;;;;15.65;71.44;99542.92;2220911;80;20966;-83
2022/10/11 09:21:43;;;;;;;29.52;16.45;;;;;;;15.82;71.06;99551.73;2221647;80;21017;-84
2022/10/11 09:24:46;;;;;;;24.50;16.07;;;;;;;15.82;71.74;99555.24;2221991;80;20946;-84
2022/10/11 09:27:44;;;;;;;22.35;16.35;;;;;;;15.89;72.95;99554.38;2221387;80;21034;-83
2022/10/11 09:30:44;;;;;;;23.02;16.32;;;;;;;16.16;70.57;99555.28;2221101;80;21405;-84
2022/10/11 09:33:45;;;;;;;22.25;15.85;;;;;;;16.28;72.36;99554.41;2220653;80;20943;-85
2022/10/11 09:36:45;;;;;;;27.15;16.65;;;;;;;16.67;71.16;99559.72;2220862;80;20911;-84
2022/10/11 09:39:48;;;;;;;19.52;14.45;;;;;;;16.89;68.55;99568.47;2221043;80;21006;-83
2022/10/11 09:42:49;;;;;;;23.23;14.73;;;;;;;16.51;66.98;99568.05;2221505;78;20998;-83
2022/10/11 09:45:49;;;;;;;23.57;15.53;;;;;;;15.75;67.64;99562.69;2221832;80;21190;-83
2022/10/11 09:48:49;;;;;;;21.10;13.32;;;;;;;15.51;70.06;99565.17;2221065;80;20975;-83
2022/10/11 09:51:50;;;;;;;16.48;13.03;;;;;;;15.74;70.13;99566.19;2220980;80;20958;-83
2022/10/11 09:54:50;;;;;;;23.47;13.53;;;;;;;15.89;69.61;99567.54;2220619;80;21316;-84
2022/10/11 09:57:51;;;;;;;20.92;13.30;;;;;;;15.95;69.89;99571.94;2221607;80;21013;-83
2022/10/11 10:00:51;;;;;;;17.98;13.22;;;;;;;16.08;70.11;99573.72;2221785;80;20972;-83
2022/10/11 10:03:51;;;;;;;29.02;17.70;;;;;;;16.22;67.82;99577.67;2222457;80;20969;-82
2022/10/11 10:06:52;;;;;;;19.37;13.50;;;;;;;15.96;67.77;99580.72;2222179;80;21327;-81
2022/10/11 10:09:52;;;;;;;16.20;12.23;;;;;;;15.58;68.66;99586.72;2221893;80;20966;-77
2022/10/11 10:12:53;;;;;;;20.62;13.00;;;;;;;15.27;69.92;99594.45;2219463;80;20978;-85
2022/10/11 10:15:53;;;;;;;25.75;16.32;;;;;;;15.26;72.70;99594.02;2222060;80;20958;-80
2022/10/11 10:18:54;;;;;;;26.57;16.60;;;;;;;15.59;71.88;99593.31;2222754;80;20955;-82
2022/10/11 10:21:54;;;;;;;25.80;14.73;;;;;;;15.58;72.35;99596.81;2221611;80;20963;-82
2022/10/11 10:24:54;;;;;;;23.10;15.20;;;;;;;15.79;72.45;99597.79;2220607;80;20966;-80
2022/10/11 10:27:55;;;;;;;21.93;15.32;;;;;;;15.14;69.25;99608.41;2221176;80;21005;-80
2022/10/11 10:30:55;;;;;;;26.80;15.32;;;;;;;14.35;71.45;99607.78;2221030;80;20919;-84
2022/10/11 10:33:56;;;;;;;19.82;14.78;;;;;;;13.70;73.36;99610.16;2221004;80;21585;-80
2022/10/11 10:36:56;;;;;;;26.42;16.37;;;;;;;13.33;75.54;99610.14;2221617;80;20954;-80
2022/10/11 10:39:58;;;;;;;34.67;14.55;;;;;;;13.17;76.98;99614.73;2196758;80;21013;-83
2022/10/11 10:43:03;;;;;;;44.10;14.95;;;;;;;13.88;78.66;99616.08;2220851;78;21050;-83
2022/10/11 10:46:02;;;;;;;28.17;13.28;;;;;;;14.74;75.84;99618.20;2224574;80;20955;-81
2022/10/11 10:49:01;;;;;;;26.80;13.13;;;;;;;15.17;72.86;99618.95;2221268;80;21015;-83
2022/10/11 10:52:04;;;;;;;22.60;12.07;;;;;;;15.39;73.20;99619.06;2221774;80;21613;-83
2022/10/11 10:55:03;;;;;;;17.40;11.33;;;;;;;15.79;70.56;99617.09;2221521;80;20935;-81
2022/10/11 10:58:04;;;;;;;23.45;9.58;;;;;;;16.09;69.04;99619.36;2221595;80;20947;-83
2022/10/11 11:01:03;;;;;;;17.25;10.65;;;;;;;16.65;68.69;99615.92;2222438;80;20982;-83
2022/10/11 11:04:04;;;;;;;23.52;10.90;;;;;;;16.98;67.42;99619.87;2221838;80;21344;-82
2022/10/11 11:07:04;;;;;;;18.80;10.23;;;;;;;17.12;66.53;99621.17;2221429;80;20954;-83
2022/10/11 11:10:04;;;;;;;14.83;10.32;;;;;;;17.46;65.04;99620.66;2221625;80;20962;-85
2022/10/11 11:13:05;;;;;;;19.70;9.85;;;;;;;17.46;61.70;99619.34;2220548;80;20975;-84
2022/10/11 11:16:05;;;;;;;10.05;8.95;;;;;;;17.63;64.72;99618.83;2220847;80;21394;-83
2022/10/11 11:19:06;;;;;;;13.43;9.50;;;;;;;18.40;64.13;99613.59;2221654;80;20942;-81
2022/10/11 11:22:06;;;;;;;12.43;8.70;;;;;;;19.15;59.98;99610.33;2221104;80;21290;-80
2022/10/11 11:25:06;;;;;;;9.73;8.48;;;;;;;18.86;57.10;99609.71;2220657;80;20959;-83
2022/10/11 11:28:07;;;;;;;12.82;9.03;;;;;;;18.33;58.79;99611.01;2220144;80;20998;-83
2022/10/11 11:31:07;;;;;;;13.08;10.40;;;;;;;16.96;58.36;99617.69;2220440;80;20982;-84
2022/10/11 11:34:08;;;;;;;12.23;8.80;;;;;;;15.88;61.17;99623.70;2222082;80;21453;-81
2022/10/11 11:37:08;;;;;;;12.68;9.93;;;;;;;15.03;63.54;99625.88;2221126;80;20978;-83
2022/10/11 11:40:08;;;;;;;14.78;10.35;;;;;;;15.73;64.25;99620.14;2220945;80;21330;-84
2022/10/11 11:43:09;;;;;;;12.68;7.30;;;;;;;16.45;62.41;99621.16;2221230;78;21133;-81
2022/10/11 11:46:09;;;;;;;11.97;5.62;;;;;;;16.29;62.69;99617.63;2222232;80;20989;-80
2022/10/11 11:49:09;;;;;;;8.45;5.35;;;;;;;17.04;62.46;99605.36;2222783;80;20951;-80
2022/10/11 11:52:10;;;;;;;8.73;5.92;;;;;;;17.65;58.42;99606.50;2222855;80;21038;-85
2022/10/11 11:55:11;;;;;;;9.10;5.15;;;;;;;17.68;58.25;99610.48;2223581;80;20935;-82
2022/10/11 11:58:11;;;;;;;10.00;4.85;;;;;;;17.62;58.87;99611.80;2223750;80;20896;-84
2022/10/11 12:01:12;;;;;;;14.87;4.95;;;;;;;17.72;57.64;99615.30;2223135;80;20970;-80
2022/10/11 12:04:12;;;;;;;11.45;5.15;;;;;;;17.97;57.62;99608.12;2221944;80;20947;-82
2022/10/11 12:07:12;;;;;;;13.70;4.60;;;;;;;17.99;54.23;99608.55;2222148;80;20955;-84
2022/10/11 12:10:13;;;;;;;9.85;4.78;;;;;;;17.65;55.82;99602.98;2221016;80;20955;-79
2022/10/11 12:13:13;;;;;;;14.55;4.05;;;;;;;17.73;52.77;99599.45;2220459;80;21326;-80
2022/10/11 12:16:13;;;;;;;6.65;4.80;;;;;;;17.61;56.96;99595.97;2219884;80;20970;-78
2022/10/11 12:19:14;;;;;;;9.65;4.40;;;;;;;17.51;54.12;99607.00;2218381;80;20970;-81
2022/10/11 12:22:14;;;;;;;9.13;5.30;;;;;;;16.62;55.28;99610.22;2219141;80;20983;-81
2022/10/11 12:25:15;;;;;;;9.03;5.58;;;;;;;16.37;57.32;99610.62;2221073;80;20978;-81
2022/10/11 12:28:15;;;;;;;9.83;4.87;;;;;;;16.64;58.63;99616.80;2220529;80;21409;-77
2022/10/11 12:31:16;;;;;;;8.08;4.53;;;;;;;17.07;56.62;99609.75;2219133;80;20982;-82
2022/10/11 12:34:16;;;;;;;8.93;5.03;;;;;;;17.14;53.20;99611.48;2220724;80;20920;-81
2022/10/11 12:37:17;;;;;;;7.75;4.50;;;;;;;17.32;54.93;99606.61;2220590;80;20931;-81
2022/10/11 12:40:17;;;;;;;11.50;4.90;;;;;;;17.16;53.28;99617.20;2220391;80;20959;-81
2022/10/11 12:43:17;;;;;;;11.22;4.50;;;;;;;17.12;55.27;99614.13;2227882;78;21949;-81
2022/10/11 12:46:18;;;;;;;7.83;4.85;;;;;;;17.09;54.01;99619.41;2229155;80;20949;-80
2022/10/11 12:49:18;;;;;;;9.30;4.83;;;;;;;17.26;55.23;99618.49;2229000;80;21028;-84
2022/10/11 12:52:19;;;;;;;23.35;17.15;;;;;;;17.17;56.08;99611.48;2229333;80;20962;-83
2022/10/11 12:55:19;;;;;;;10.65;6.08;;;;;;;16.48;54.46;99614.61;2229576;80;21041;-80
2022/10/11 12:58:19;;;;;;;11.50;4.78;;;;;;;16.73;54.85;99621.66;2228986;80;20934;-82
2022/10/11 13:01:20;;;;;;;10.63;4.78;;;;;;;16.90;52.69;99619.45;2229707;80;21064;-83
2022/10/11 13:04:20;;;;;;;9.25;5.00;;;;;;;16.27;52.30;99618.08;2229247;80;21005;-82
2022/10/11 13:07:22;;;;;;;11.10;5.17;;;;;;;15.69;52.77;99627.15;2228764;80;20997;-81
2022/10/11 13:10:21;;;;;;;6.62;4.35;;;;;;;15.29;53.29;99627.34;2229012;80;21586;-83
2022/10/11 13:13:21;;;;;;;15.85;10.23;;;;;;;15.03;53.55;99621.94;2229216;80;21081;-85
2022/10/11 13:16:22;;;;;;;11.75;7.25;;;;;;;14.89;54.19;99627.53;2230183;80;20981;-84
2022/10/11 13:19:25;;;;;;;11.22;5.47;;;;;;;14.78;54.47;99630.09;2230038;80;21649;-83
2022/10/11 13:22:24;;;;;;;7.75;4.58;;;;;;;14.77;55.56;99626.14;2198730;80;20954;-83
2022/10/11 13:25:25;;;;;;;9.80;4.28;;;;;;;14.76;55.95;99630.95;2229251;80;21468;-83
2022/10/11 13:28:25;;;;;;;8.55;4.62;;;;;;;14.70;54.91;99629.12;2227629;80;21012;-79
2022/10/11 13:31:26;;;;;;;10.03;4.05;;;;;;;14.63;55.60;99633.45;2228235;80;20966;-82
2022/10/11 13:34:26;;;;;;;11.05;5.33;;;;;;;14.58;54.52;99635.59;2228951;80;20985;-84
2022/10/11 13:37:27;;;;;;;7.80;4.65;;;;;;;14.49;55.82;99634.20;2229199;80;20970;-83
2022/10/11 13:40:27;;;;;;;8.20;4.37;;;;;;;14.47;56.12;99635.94;2229378;80;21061;-83
2022/10/11 13:43:27;;;;;;;8.83;4.58;;;;;;;14.44;56.63;99632.84;2222920;78;21030;-83
2022/10/11 13:46:28;;;;;;;8.75;4.67;;;;;;;14.36;55.64;99638.43;2221775;80;20939;-83
2022/10/11 13:49:36;;;;;;;8.75;3.98;;;;;;;14.33;55.49;99633.15;2196413;80;21006;-81
2022/10/11 13:52:30;;;;;;;7.97;4.87;;;;;;;14.26;56.27;99630.90;2221882;80;21390;-83
2022/10/11 13:55:31;;;;;;;8.43;3.98;;;;;;;14.27;56.98;99637.03;2222338;80;20927;-83
2022/10/11 13:58:32;;;;;;;4.35;3.50;;;;;;;14.25;56.43;99641.39;2222469;80;20986;-82